Forest fire From: 19-07-2018 20:00 Until: 20-07-2018 16:00 warning for: Forest fire Level: Yellow info button
suomi:
Metsäpalovaroitus on voimassa.

svenska:
Varning för skogsbrand gäller.

english:
A forest fire warning is in force. 

Extreme high temperature From: 19-07-2018 20:00 Until: 23:00 warning for: Extreme high temperature Level: Yellow info button
suomi:
Hellevaroitus: Lähivuorokauden aikana on odotettavissa tukalaa hellettä.

svenska:
Varning för värmebölja: Under det närmaste dygnet är den svåra hettan att vänta.

english:
Heat wave warning: Warm weather is expected during the coming 24 hours. 


Thunder radar more information blitzortung!


Löydät sääaseman tiedot myös:

European Weather Network

Finland Weather Exchange

Weather Underground

AWEKAS



Weather Underground säähistoriasivu

Päivittäin yhteenveto Heinäkuu 8, 2017 Yksiköt:  Englantilaiset    Metriset   Molemmat
« Edellinen Päivä
Seuraava Päivä »
Päivittäin Viikoittain Kuukausittain Vuosittain Mukautettu
  Korkea: Matala: Keskiarvo:
Lämpötila: TemperatureC °F 7.3 °F 16.6 °F
Kastepiste: DewpointC °F 6.5 °F 9 °F
Kosteus: Humidity % 35 % 63 %
Tuulen nopeus: WindSpeedKMH mph 0.0 mph 0.1 mph
Tuulenpuuska: WindSpeedGustKMH mph - -
Tuuli:- - SW
Ilmanpaine: PressurehPa in 1008.0 in -
Sade: 0.0 in    
Historical Graphs
 
 
Taulukkotiedot Heinäkuu 8, 2017
Aika Lämpötila Kastepiste Ilmanpaine Tuuli Tuulen nopeus Tuulenpuuska Kosteus Sademäärä (tunneittain)
TemperatureC °F DewpointC °F PressurehPa in Calm     Humidity % HourlyPrecipMM in
00:00 7.3 °F 6.7 °F 1011.1 in Calm     96 % 0.0 in
00:15 8.3 °F 7.4 °F 1011.1 in Calm     94 % 0.0 in
00:30 9.1 °F 7.7 °F 1011.1 in Calm     91 % 0.0 in
00:45 9.7 °F 7.8 °F 1011.1 in Calm     88 % 0.0 in
01:00 10.3 °F 8.3 °F 1010.7 in Calm   1.6 mph 87 % 0.0 in
01:15 11.1 °F 8.6 °F 1010.7 in Calm     85 % 0.0 in
01:30 11.8 °F 9.0 °F 1010.7 in Calm     83 % 0.0 in
01:45 12.8 °F 9.1 °F 1010.7 in Calm     78 % 0.0 in
02:00 14.0 °F 9.8 °F 1010.7 in Calm   1.6 mph 76 % 0.0 in
02:15 15.6 °F 10.2 °F 1010.4 in Calm     70 % 0.0 in
02:30 16.6 °F 10.0 °F 1010.4 in Calm   1.6 mph 65 % 0.0 in
02:45 17.4 °F 10.8 °F 1010.4 in Calm   1.6 mph 65 % 0.0 in
03:00 18.2 °F 11.5 °F 1010.4 in Calm   1.6 mph 65 % 0.0 in
03:15 18.7 °F 11.2 °F 1010.4 in Calm   1.6 mph 62 % 0.0 in
03:30 19.1 °F 10.6 °F 1010.4 in Calm   1.6 mph 58 % 0.0 in
03:45 19.3 °F 11.1 °F 1010.4 in Calm   3.2 mph 59 % 0.0 in
04:00 19.8 °F 10.7 °F 1010.4 in Calm   1.6 mph 56 % 0.0 in
04:15 19.8 °F 9.1 °F 1010.4 in Calm   1.6 mph 50 % 0.0 in
04:30 19.3 °F 9.8 °F 1010.4 in Calm   3.2 mph 54 % 0.0 in
04:45 20.0 °F 9.3 °F 1010.0 in Calm   4.8 mph 50 % 0.0 in
05:00 20.6 °F 9.8 °F 1010.0 in Calm   1.6 mph 50 % 0.0 in
05:15 20.3 °F 8.9 °F 1010.0 in Calm   3.2 mph 48 % 0.0 in
05:30 19.9 °F 8.6 °F 1010.0 in Calm   4.8 mph 48 % 0.0 in
05:45 20.5 °F 8.8 °F 1010.0 in Calm   3.2 mph 47 % 0.0 in
06:00 20.5 °F 9.4 °F 1010.0 in Calm   4.8 mph 49 % 0.0 in
06:15 20.8 °F 8.1 °F 1009.7 in Calm   6.4 mph 44 % 0.0 in
06:30 21.3 °F 8.9 °F 1009.7 in Calm   3.2 mph 45 % 0.0 in
06:45 21.3 °F 8.6 °F 1009.7 in NW 1.6 mph 8.0 mph 44 % 0.0 in
07:00 21.9 °F 8.8 °F 1009.7 in Calm   4.8 mph 43 % 0.0 in
07:15 22.1 °F 8.9 °F 1009.4 in Calm   3.2 mph 43 % 0.0 in
07:30 22.2 °F 7.6 °F 1009.4 in Calm   4.8 mph 39 % 0.0 in
07:45 22.1 °F 8.2 °F 1009.4 in Calm   3.2 mph 41 % 0.0 in
08:00 22.6 °F 7.1 °F 1009.4 in Calm   3.2 mph 37 % 0.0 in
08:15 22.7 °F 8.7 °F 1009.4 in NE 1.6 mph 6.4 mph 41 % 0.0 in
08:30 22.8 °F 8.1 °F 1009.0 in Calm   6.4 mph 39 % 0.0 in
08:45 22.9 °F 7.4 °F 1009.0 in Calm   3.2 mph 37 % 0.0 in
09:00 23.0 °F 8.7 °F 1008.7 in Calm   4.8 mph 40 % 0.0 in
09:15 22.9 °F 6.7 °F 1008.7 in North 1.6 mph 4.8 mph 35 % 0.0 in
09:30 21.8 °F 10.0 °F 1008.7 in Calm     47 % 0.0 in
09:45 21.4 °F 8.3 °F 1008.7 in Calm   1.6 mph 43 % 0.0 in
10:00 21.7 °F 7.5 °F 1008.4 in Calm   1.6 mph 40 % 0.0 in
10:15 21.3 °F 8.6 °F 1008.7 in Calm   6.4 mph 44 % 0.0 in
10:30 20.8 °F 8.4 °F 1008.4 in Calm     45 % 0.0 in
10:45 20.9 °F 8.5 °F 1008.4 in Calm     45 % 0.0 in
11:00 21.4 °F 8.0 °F 1008.4 in Calm   1.6 mph 42 % 0.0 in
11:15 21.4 °F 6.5 °F 1008.4 in Calm   3.2 mph 38 % 0.0 in
11:30 21.1 °F 7.3 °F 1008.4 in Calm     41 % 0.0 in
11:45 21.3 °F 6.8 °F 1008.4 in Calm   6.4 mph 39 % 0.0 in
12:00 21.8 °F 7.9 °F 1008.0 in Calm     41 % 0.0 in
12:15 21.6 °F 6.7 °F 1008.4 in Calm   1.6 mph 38 % 0.0 in
12:30 21.7 °F 7.1 °F 1008.0 in Calm   1.6 mph 39 % 0.0 in
12:45 21.6 °F 7.0 °F 1008.4 in Calm   3.2 mph 39 % 0.0 in
13:00 21.3 °F 7.5 °F 1008.4 in Calm   1.6 mph 41 % 0.0 in
13:30 20.9 °F 8.8 °F 1008.4 in Calm     46 % 0.0 in
13:45 20.4 °F 8.4 °F 1008.4 in Calm     46 % 0.0 in
14:00 20.2 °F 9.7 °F 1008.4 in Calm     51 % 0.0 in
14:15 19.9 °F 9.5 °F 1008.0 in Calm     51 % 0.0 in
14:30 19.4 °F 9.3 °F 1008.4 in Calm     52 % 0.0 in
14:45 19.2 °F 11.0 °F 1008.4 in Calm     59 % 0.0 in
15:00 18.7 °F 12.7 °F 1008.4 in Calm     68 % 0.0 in
15:15 18.3 °F 12.0 °F 1008.4 in Calm     67 % 0.0 in
15:30 18.0 °F 13.1 °F 1008.0 in Calm     73 % 0.0 in
15:45 17.6 °F 12.7 °F 1008.0 in Calm     73 % 0.0 in
16:00 17.1 °F 12.6 °F 1008.0 in Calm     75 % 0.0 in
16:15 16.6 °F 12.9 °F 1008.4 in Calm     79 % 0.0 in
16:30 16.2 °F 12.8 °F 1008.0 in Calm     80 % 0.0 in
16:45 15.9 °F 11.7 °F 1008.4 in Calm     76 % 0.0 in
17:00 15.6 °F 10.7 °F 1008.4 in Calm     73 % 0.0 in
17:15 15.4 °F 11.0 °F 1008.4 in Calm     75 % 0.0 in
17:30 15.0 °F 10.4 °F 1008.4 in Calm     74 % 0.0 in
17:45 14.6 °F 10.6 °F 1008.4 in Calm     77 % 0.0 in
18:00 14.0 °F 10.2 °F 1008.4 in Calm     78 % 0.0 in
18:15 13.5 °F 10.1 °F 1008.4 in Calm     80 % 0.0 in
18:30 12.9 °F 9.7 °F 1008.4 in Calm     81 % 0.0 in
18:45 12.2 °F 9.4 °F 1008.4 in Calm     83 % 0.0 in
19:00 11.5 °F 8.9 °F 1008.4 in Calm   1.6 mph 84 % 0.0 in
19:15 11.2 °F 8.7 °F 1008.4 in Calm     85 % 0.0 in
19:30 11.1 °F 8.6 °F 1008.4 in Calm     85 % 0.0 in
19:45 11.3 °F 8.9 °F 1008.4 in Calm     85 % 0.0 in
20:00 11.6 °F 8.8 °F 1008.4 in Calm   1.6 mph 83 % 0.0 in
20:15 11.4 °F 8.6 °F 1008.4 in Calm     83 % 0.0 in
20:30 10.8 °F 8.4 °F 1008.4 in Calm     85 % 0.0 in
20:45 10.3 °F 8.1 °F 1008.4 in Calm     86 % 0.0 in
21:00 9.9 °F 8.0 °F 1008.0 in Calm     88 % 0.0 in
21:15 9.7 °F 7.9 °F 1008.0 in Calm     89 % 0.0 in
21:30 9.8 °F 7.9 °F 1008.4 in Calm     88 % 0.0 in
21:45 9.9 °F 8.0 °F 1008.4 in Calm   1.6 mph 88 % 0.0 in
22:00 9.7 °F 7.8 °F 1008.4 in Calm     88 % 0.0 in
22:15 9.5 °F 7.6 °F 1008.4 in Calm     88 % 0.0 in
22:30 9.3 °F 7.6 °F 1008.4 in Calm     89 % 0.0 in
22:45 9.3 °F 7.8 °F 1008.4 in Calm     90 % 0.0 in
23:00 9.7 °F 8.1 °F 1008.4 in Calm     90 % 0.0 in
23:15 10.2 °F 9.0 °F 1008.4 in Calm     92 % 0.0 in
23:30 11.2 °F 8.7 °F 1008.4 in Calm   6.4 mph 85 % 0.0 in
23:45 12.1 °F 8.9 °F 1008.4 in Calm   1.6 mph 81 % 0.0 in
Esan sääasema
Terveisin Weather Underground - 2.75 mb

Alkuperäinen skripti  Jim McMurry - jmcmurry@mwt.net Sovitettu myös templatelle  Wim van der Kuil - Leuven-Template.eu

Laitteet joita käytämme:

Sääasema
Davis VP2

Sääasemaohjelma
Cumulus

Sääaseman tietokone
Asus EeePC

Palveluntarjoaja
Suncomet

Davis VP2

Cumulus

Asus EeePC

Suncomet